sensor_id;sensor_type;location;lat;lon;timestamp;P1;durP1;ratioP1;P2;durP2;ratioP2
66593;SDS011;53450;42.584;23.366;2023-05-02T00:01:03;7.45;;;5.45;;
66593;SDS011;53450;42.584;23.366;2023-05-02T00:03:30;19.33;;;8.30;;
66593;SDS011;53450;42.584;23.366;2023-05-02T00:05:56;14.68;;;6.60;;
66593;SDS011;53450;42.584;23.366;2023-05-02T00:08:23;31.38;;;11.38;;
66593;SDS011;53450;42.584;23.366;2023-05-02T00:10:49;24.60;;;10.63;;
66593;SDS011;53450;42.584;23.366;2023-05-02T00:13:15;25.23;;;9.95;;
66593;SDS011;53450;42.584;23.366;2023-05-02T00:15:40;18.15;;;8.57;;
66593;SDS011;53450;42.584;23.366;2023-05-02T00:18:06;18.48;;;9.88;;
66593;SDS011;53450;42.584;23.366;2023-05-02T00:20:31;29.10;;;11.45;;
66593;SDS011;53450;42.584;23.366;2023-05-02T00:22:57;13.32;;;8.25;;
66593;SDS011;53450;42.584;23.366;2023-05-02T00:25:23;10.40;;;7.13;;
66593;SDS011;53450;42.584;23.366;2023-05-02T00:27:48;11.90;;;7.40;;
66593;SDS011;53450;42.584;23.366;2023-05-02T00:30:15;8.32;;;6.25;;
66593;SDS011;53450;42.584;23.366;2023-05-02T00:32:42;6.57;;;5.28;;
66593;SDS011;53450;42.584;23.366;2023-05-02T00:35:09;6.78;;;5.32;;
66593;SDS011;53450;42.584;23.366;2023-05-02T00:37:34;5.82;;;5.32;;
66593;SDS011;53450;42.584;23.366;2023-05-02T00:40:00;6.40;;;5.22;;
66593;SDS011;53450;42.584;23.366;2023-05-02T00:42:26;7.22;;;5.57;;
66593;SDS011;53450;42.584;23.366;2023-05-02T00:44:55;6.10;;;5.30;;
66593;SDS011;53450;42.584;23.366;2023-05-02T00:47:21;9.18;;;6.13;;
66593;SDS011;53450;42.584;23.366;2023-05-02T00:49:48;7.70;;;5.75;;
66593;SDS011;53450;42.584;23.366;2023-05-02T00:52:14;10.60;;;5.75;;
66593;SDS011;53450;42.584;23.366;2023-05-02T00:54:40;5.95;;;5.18;;
66593;SDS011;53450;42.584;23.366;2023-05-02T00:57:06;6.78;;;5.78;;
66593;SDS011;53450;42.584;23.366;2023-05-02T00:59:35;11.80;;;6.28;;
66593;SDS011;53450;42.584;23.366;2023-05-02T01:02:15;6.35;;;5.75;;
66593;SDS011;53450;42.584;23.366;2023-05-02T01:10:29;6.68;;;5.97;;
66593;SDS011;53450;42.584;23.366;2023-05-02T01:13:08;6.43;;;5.43;;
66593;SDS011;53450;42.584;23.366;2023-05-02T01:15:38;6.20;;;5.60;;
66593;SDS011;53450;42.584;23.366;2023-05-02T01:18:08;6.90;;;5.45;;
66593;SDS011;53450;42.584;23.366;2023-05-02T01:20:35;8.32;;;5.13;;
66593;SDS011;53450;42.584;23.366;2023-05-02T01:23:06;7.07;;;5.43;;
66593;SDS011;53450;42.584;23.366;2023-05-02T01:31:22;5.63;;;4.97;;
66593;SDS011;53450;42.584;23.366;2023-05-02T01:33:51;6.35;;;5.70;;
66593;SDS011;53450;42.584;23.366;2023-05-02T01:36:19;8.30;;;5.90;;
66593;SDS011;53450;42.584;23.366;2023-05-02T01:38:45;6.78;;;5.28;;
66593;SDS011;53450;42.584;23.366;2023-05-02T01:41:14;6.80;;;5.45;;
66593;SDS011;53450;42.584;23.366;2023-05-02T01:43:40;8.77;;;5.60;;
66593;SDS011;53450;42.584;23.366;2023-05-02T01:46:09;5.93;;;5.38;;
66593;SDS011;53450;42.584;23.366;2023-05-02T01:48:37;8.30;;;5.68;;
66593;SDS011;53450;42.584;23.366;2023-05-02T01:51:05;8.07;;;5.40;;
66593;SDS011;53450;42.584;23.366;2023-05-02T01:53:32;6.22;;;5.57;;
66593;SDS011;53450;42.584;23.366;2023-05-02T01:55:59;5.20;;;4.70;;
66593;SDS011;53450;42.584;23.366;2023-05-02T01:58:26;7.22;;;5.40;;
66593;SDS011;53450;42.584;23.366;2023-05-02T02:01:20;8.10;;;5.45;;
66593;SDS011;53450;42.584;23.366;2023-05-02T02:04:14;6.88;;;5.82;;
66593;SDS011;53450;42.584;23.366;2023-05-02T02:06:49;6.05;;;5.40;;
66593;SDS011;53450;42.584;23.366;2023-05-02T02:09:19;5.60;;;5.10;;
66593;SDS011;53450;42.584;23.366;2023-05-02T02:11:46;6.95;;;5.90;;
66593;SDS011;53450;42.584;23.366;2023-05-02T02:14:20;9.70;;;5.90;;
66593;SDS011;53450;42.584;23.366;2023-05-02T02:16:49;8.73;;;5.75;;
66593;SDS011;53450;42.584;23.366;2023-05-02T02:19:17;8.63;;;5.82;;
66593;SDS011;53450;42.584;23.366;2023-05-02T02:22:10;6.75;;;5.90;;
66593;SDS011;53450;42.584;23.366;2023-05-02T02:24:38;9.32;;;5.82;;
66593;SDS011;53450;42.584;23.366;2023-05-02T02:27:05;6.93;;;6.18;;
66593;SDS011;53450;42.584;23.366;2023-05-02T02:29:32;6.65;;;5.78;;
66593;SDS011;53450;42.584;23.366;2023-05-02T02:31:58;6.75;;;6.03;;
66593;SDS011;53450;42.584;23.366;2023-05-02T02:34:23;10.70;;;6.30;;
66593;SDS011;53450;42.584;23.366;2023-05-02T02:39:38;6.85;;;6.15;;
66593;SDS011;53450;42.584;23.366;2023-05-02T02:51:49;10.57;;;6.18;;
66593;SDS011;53450;42.584;23.366;2023-05-02T03:00:19;11.68;;;7.15;;
66593;SDS011;53450;42.584;23.366;2023-05-02T03:02:48;7.35;;;6.63;;
66593;SDS011;53450;42.584;23.366;2023-05-02T03:05:18;7.43;;;6.38;;
66593;SDS011;53450;42.584;23.366;2023-05-02T03:07:46;7.95;;;7.15;;
66593;SDS011;53450;42.584;23.366;2023-05-02T03:10:12;7.72;;;6.55;;
66593;SDS011;53450;42.584;23.366;2023-05-02T03:12:38;8.98;;;6.80;;
66593;SDS011;53450;42.584;23.366;2023-05-02T03:15:31;6.95;;;6.28;;
66593;SDS011;53450;42.584;23.366;2023-05-02T03:18:28;7.90;;;7.07;;
66593;SDS011;53450;42.584;23.366;2023-05-02T03:20:54;7.93;;;6.95;;
66593;SDS011;53450;42.584;23.366;2023-05-02T03:23:20;8.57;;;7.10;;
66593;SDS011;53450;42.584;23.366;2023-05-02T03:25:46;8.07;;;7.28;;
66593;SDS011;53450;42.584;23.366;2023-05-02T03:28:18;7.57;;;6.65;;
66593;SDS011;53450;42.584;23.366;2023-05-02T03:30:46;9.93;;;7.43;;
66593;SDS011;53450;42.584;23.366;2023-05-02T03:33:11;8.60;;;7.45;;
66593;SDS011;53450;42.584;23.366;2023-05-02T03:35:40;9.23;;;7.38;;
66593;SDS011;53450;42.584;23.366;2023-05-02T03:38:07;9.27;;;7.20;;
66593;SDS011;53450;42.584;23.366;2023-05-02T03:40:34;9.00;;;7.65;;
66593;SDS011;53450;42.584;23.366;2023-05-02T03:43:00;9.40;;;7.63;;
66593;SDS011;53450;42.584;23.366;2023-05-02T03:45:30;7.57;;;6.50;;
66593;SDS011;53450;42.584;23.366;2023-05-02T03:47:56;9.13;;;7.45;;
66593;SDS011;53450;42.584;23.366;2023-05-02T03:50:22;7.82;;;6.97;;
66593;SDS011;53450;42.584;23.366;2023-05-02T03:52:50;14.90;;;8.45;;
66593;SDS011;53450;42.584;23.366;2023-05-02T03:55:20;11.07;;;6.90;;
66593;SDS011;53450;42.584;23.366;2023-05-02T03:57:47;8.10;;;7.30;;
66593;SDS011;53450;42.584;23.366;2023-05-02T04:00:13;11.57;;;7.05;;
66593;SDS011;53450;42.584;23.366;2023-05-02T04:02:46;7.57;;;6.80;;
66593;SDS011;53450;42.584;23.366;2023-05-02T04:05:15;11.52;;;7.72;;
66593;SDS011;53450;42.584;23.366;2023-05-02T04:07:41;10.40;;;7.47;;
66593;SDS011;53450;42.584;23.366;2023-05-02T04:10:07;12.13;;;8.52;;
66593;SDS011;53450;42.584;23.366;2023-05-02T04:12:42;8.07;;;7.30;;
66593;SDS011;53450;42.584;23.366;2023-05-02T04:15:09;9.63;;;7.40;;
66593;SDS011;53450;42.584;23.366;2023-05-02T04:17:35;7.70;;;7.00;;
66593;SDS011;53450;42.584;23.366;2023-05-02T04:20:02;7.60;;;6.88;;
66593;SDS011;53450;42.584;23.366;2023-05-02T04:22:30;7.13;;;6.43;;
66593;SDS011;53450;42.584;23.366;2023-05-02T04:25:01;28.42;;;8.98;;
66593;SDS011;53450;42.584;23.366;2023-05-02T04:27:28;15.23;;;7.47;;
66593;SDS011;53450;42.584;23.366;2023-05-02T04:29:53;11.10;;;7.60;;
66593;SDS011;53450;42.584;23.366;2023-05-02T04:32:20;8.75;;;6.80;;
66593;SDS011;53450;42.584;23.366;2023-05-02T04:34:47;7.30;;;6.50;;
66593;SDS011;53450;42.584;23.366;2023-05-02T04:37:13;9.18;;;6.22;;
66593;SDS011;53450;42.584;23.366;2023-05-02T04:39:43;12.25;;;6.75;;
66593;SDS011;53450;42.584;23.366;2023-05-02T04:42:14;8.55;;;6.32;;
66593;SDS011;53450;42.584;23.366;2023-05-02T04:45:02;7.93;;;6.50;;
66593;SDS011;53450;42.584;23.366;2023-05-02T04:47:28;7.00;;;6.30;;
66593;SDS011;53450;42.584;23.366;2023-05-02T04:49:54;7.07;;;6.32;;
66593;SDS011;53450;42.584;23.366;2023-05-02T04:52:20;6.97;;;6.28;;
66593;SDS011;53450;42.584;23.366;2023-05-02T04:54:46;6.63;;;5.57;;
66593;SDS011;53450;42.584;23.366;2023-05-02T04:57:11;8.18;;;7.35;;
66593;SDS011;53450;42.584;23.366;2023-05-02T04:59:42;9.47;;;6.50;;
66593;SDS011;53450;42.584;23.366;2023-05-02T05:02:09;16.73;;;6.60;;
66593;SDS011;53450;42.584;23.366;2023-05-02T05:04:36;6.07;;;5.55;;
66593;SDS011;53450;42.584;23.366;2023-05-02T05:07:03;6.18;;;5.45;;
66593;SDS011;53450;42.584;23.366;2023-05-02T05:09:29;7.32;;;6.07;;
66593;SDS011;53450;42.584;23.366;2023-05-02T05:11:55;6.53;;;5.85;;
66593;SDS011;53450;42.584;23.366;2023-05-02T05:14:21;7.03;;;6.25;;
66593;SDS011;53450;42.584;23.366;2023-05-02T05:16:51;20.95;;;6.95;;
66593;SDS011;53450;42.584;23.366;2023-05-02T05:19:17;5.88;;;5.28;;
66593;SDS011;53450;42.584;23.366;2023-05-02T05:22:08;6.10;;;5.50;;
66593;SDS011;53450;42.584;23.366;2023-05-02T05:24:59;6.73;;;5.47;;
66593;SDS011;53450;42.584;23.366;2023-05-02T05:27:28;8.55;;;6.15;;
66593;SDS011;53450;42.584;23.366;2023-05-02T05:29:54;5.80;;;5.28;;
66593;SDS011;53450;42.584;23.366;2023-05-02T05:32:20;12.70;;;7.72;;
66593;SDS011;53450;42.584;23.366;2023-05-02T05:34:50;25.38;;;5.90;;
66593;SDS011;53450;42.584;23.366;2023-05-02T05:37:21;8.35;;;5.55;;
66593;SDS011;53450;42.584;23.366;2023-05-02T05:39:47;11.10;;;5.43;;
66593;SDS011;53450;42.584;23.366;2023-05-02T05:42:13;5.72;;;5.22;;
66593;SDS011;53450;42.584;23.366;2023-05-02T05:44:41;5.60;;;4.78;;
66593;SDS011;53450;42.584;23.366;2023-05-02T05:47:07;8.07;;;5.53;;
66593;SDS011;53450;42.584;23.366;2023-05-02T05:49:33;5.18;;;3.40;;
66593;SDS011;53450;42.584;23.366;2023-05-02T05:52:01;5.30;;;4.80;;
66593;SDS011;53450;42.584;23.366;2023-05-02T05:54:30;7.13;;;6.20;;
66593;SDS011;53450;42.584;23.366;2023-05-02T05:56:58;10.27;;;7.93;;
66593;SDS011;53450;42.584;23.366;2023-05-02T05:59:24;8.40;;;6.53;;
66593;SDS011;53450;42.584;23.366;2023-05-02T06:01:49;6.25;;;5.65;;
66593;SDS011;53450;42.584;23.366;2023-05-02T06:04:19;10.25;;;4.95;;
66593;SDS011;53450;42.584;23.366;2023-05-02T06:06:47;12.73;;;5.88;;
66593;SDS011;53450;42.584;23.366;2023-05-02T06:09:13;7.63;;;5.00;;
66593;SDS011;53450;42.584;23.366;2023-05-02T06:11:38;6.32;;;5.72;;
66593;SDS011;53450;42.584;23.366;2023-05-02T06:14:05;7.38;;;4.50;;
66593;SDS011;53450;42.584;23.366;2023-05-02T06:16:31;5.20;;;4.70;;
66593;SDS011;53450;42.584;23.366;2023-05-02T06:18:56;5.68;;;5.07;;
66593;SDS011;53450;42.584;23.366;2023-05-02T06:21:22;4.68;;;4.10;;
66593;SDS011;53450;42.584;23.366;2023-05-02T06:23:48;9.45;;;4.90;;
66593;SDS011;53450;42.584;23.366;2023-05-02T06:26:13;9.50;;;4.32;;
66593;SDS011;53450;42.584;23.366;2023-05-02T06:28:39;5.07;;;4.00;;
66593;SDS011;53450;42.584;23.366;2023-05-02T06:31:05;4.35;;;4.00;;
66593;SDS011;53450;42.584;23.366;2023-05-02T06:33:31;5.20;;;4.28;;
66593;SDS011;53450;42.584;23.366;2023-05-02T06:35:57;5.65;;;3.90;;
66593;SDS011;53450;42.584;23.366;2023-05-02T06:38:24;9.02;;;3.90;;
66593;SDS011;53450;42.584;23.366;2023-05-02T06:40:50;10.75;;;3.58;;
66593;SDS011;53450;42.584;23.366;2023-05-02T06:43:16;5.20;;;3.47;;
66593;SDS011;53450;42.584;23.366;2023-05-02T06:45:42;4.15;;;3.83;;
66593;SDS011;53450;42.584;23.366;2023-05-02T06:48:08;4.32;;;3.13;;
66593;SDS011;53450;42.584;23.366;2023-05-02T06:50:34;5.97;;;3.50;;
66593;SDS011;53450;42.584;23.366;2023-05-02T06:53:25;5.45;;;3.22;;
66593;SDS011;53450;42.584;23.366;2023-05-02T06:55:51;5.43;;;3.67;;
66593;SDS011;53450;42.584;23.366;2023-05-02T06:58:17;8.40;;;3.35;;
66593;SDS011;53450;42.584;23.366;2023-05-02T07:00:43;7.00;;;4.32;;
66593;SDS011;53450;42.584;23.366;2023-05-02T07:03:08;4.07;;;3.55;;
66593;SDS011;53450;42.584;23.366;2023-05-02T07:05:35;25.98;;;4.65;;
66593;SDS011;53450;42.584;23.366;2023-05-02T07:08:01;4.13;;;3.20;;
66593;SDS011;53450;42.584;23.366;2023-05-02T07:10:26;6.25;;;3.30;;
66593;SDS011;53450;42.584;23.366;2023-05-02T07:12:52;9.43;;;4.20;;
66593;SDS011;53450;42.584;23.366;2023-05-02T07:15:46;7.80;;;4.57;;
66593;SDS011;53450;42.584;23.366;2023-05-02T07:18:12;4.13;;;3.53;;
66593;SDS011;53450;42.584;23.366;2023-05-02T07:20:37;7.50;;;3.22;;
66593;SDS011;53450;42.584;23.366;2023-05-02T07:23:05;6.82;;;3.60;;
66593;SDS011;53450;42.584;23.366;2023-05-02T07:25:31;4.45;;;3.22;;
66593;SDS011;53450;42.584;23.366;2023-05-02T07:27:57;8.52;;;3.55;;
66593;SDS011;53450;42.584;23.366;2023-05-02T07:32:54;5.70;;;3.90;;
66593;SDS011;53450;42.584;23.366;2023-05-02T07:35:19;24.13;;;4.40;;
66593;SDS011;53450;42.584;23.366;2023-05-02T07:37:45;12.68;;;4.70;;
66593;SDS011;53450;42.584;23.366;2023-05-02T07:40:11;11.88;;;3.10;;
66593;SDS011;53450;42.584;23.366;2023-05-02T07:42:37;6.80;;;4.03;;
66593;SDS011;53450;42.584;23.366;2023-05-02T07:45:02;5.80;;;3.30;;
66593;SDS011;53450;42.584;23.366;2023-05-02T07:47:28;14.52;;;3.63;;
66593;SDS011;53450;42.584;23.366;2023-05-02T07:49:54;4.25;;;3.45;;
66593;SDS011;53450;42.584;23.366;2023-05-02T07:52:20;4.72;;;2.97;;
66593;SDS011;53450;42.584;23.366;2023-05-02T07:54:49;10.02;;;5.07;;
66593;SDS011;53450;42.584;23.366;2023-05-02T07:57:16;5.85;;;3.40;;
66593;SDS011;53450;42.584;23.366;2023-05-02T07:59:42;6.40;;;3.92;;
66593;SDS011;53450;42.584;23.366;2023-05-02T08:02:07;8.75;;;3.95;;
66593;SDS011;53450;42.584;23.366;2023-05-02T08:04:33;4.28;;;3.60;;
66593;SDS011;53450;42.584;23.366;2023-05-02T08:06:59;4.95;;;2.83;;
66593;SDS011;53450;42.584;23.366;2023-05-02T08:09:24;3.35;;;2.75;;
66593;SDS011;53450;42.584;23.366;2023-05-02T08:11:50;4.55;;;3.33;;
66593;SDS011;53450;42.584;23.366;2023-05-02T08:14:16;4.07;;;2.63;;
66593;SDS011;53450;42.584;23.366;2023-05-02T08:16:42;2.92;;;2.60;;
66593;SDS011;53450;42.584;23.366;2023-05-02T08:19:08;3.17;;;2.92;;
66593;SDS011;53450;42.584;23.366;2023-05-02T08:21:34;2.42;;;2.22;;
66593;SDS011;53450;42.584;23.366;2023-05-02T08:23:59;2.70;;;2.50;;
66593;SDS011;53450;42.584;23.366;2023-05-02T08:26:25;2.88;;;2.58;;
66593;SDS011;53450;42.584;23.366;2023-05-02T08:28:52;3.97;;;2.83;;
66593;SDS011;53450;42.584;23.366;2023-05-02T08:31:17;7.57;;;2.63;;
66593;SDS011;53450;42.584;23.366;2023-05-02T08:33:43;2.95;;;2.75;;
66593;SDS011;53450;42.584;23.366;2023-05-02T08:36:10;7.10;;;2.92;;
66593;SDS011;53450;42.584;23.366;2023-05-02T08:38:37;3.78;;;2.83;;
66593;SDS011;53450;42.584;23.366;2023-05-02T08:41:02;4.53;;;3.03;;
66593;SDS011;53450;42.584;23.366;2023-05-02T08:43:59;8.57;;;2.70;;
66593;SDS011;53450;42.584;23.366;2023-05-02T08:46:53;2.80;;;2.50;;
66593;SDS011;53450;42.584;23.366;2023-05-02T08:49:44;4.00;;;2.45;;
66593;SDS011;53450;42.584;23.366;2023-05-02T08:52:11;3.28;;;2.58;;
66593;SDS011;53450;42.584;23.366;2023-05-02T08:54:37;2.90;;;2.50;;
66593;SDS011;53450;42.584;23.366;2023-05-02T08:57:03;5.13;;;2.40;;
66593;SDS011;53450;42.584;23.366;2023-05-02T08:59:30;3.10;;;2.65;;
66593;SDS011;53450;42.584;23.366;2023-05-02T09:01:59;6.68;;;2.90;;
66593;SDS011;53450;42.584;23.366;2023-05-02T09:04:30;4.63;;;2.55;;
66593;SDS011;53450;42.584;23.366;2023-05-02T09:06:58;3.67;;;2.20;;
66593;SDS011;53450;42.584;23.366;2023-05-02T09:09:24;5.28;;;2.30;;
66593;SDS011;53450;42.584;23.366;2023-05-02T09:11:50;6.18;;;3.10;;
66593;SDS011;53450;42.584;23.366;2023-05-02T09:14:17;2.70;;;2.10;;
66593;SDS011;53450;42.584;23.366;2023-05-02T09:16:43;2.50;;;2.20;;
66593;SDS011;53450;42.584;23.366;2023-05-02T09:19:08;4.78;;;2.42;;
66593;SDS011;53450;42.584;23.366;2023-05-02T09:21:35;3.05;;;2.25;;
66593;SDS011;53450;42.584;23.366;2023-05-02T09:26:43;9.73;;;2.55;;
66593;SDS011;53450;42.584;23.366;2023-05-02T09:29:28;5.10;;;2.38;;
66593;SDS011;53450;42.584;23.366;2023-05-02T09:31:59;5.25;;;2.22;;
66593;SDS011;53450;42.584;23.366;2023-05-02T09:34:26;4.63;;;2.38;;
66593;SDS011;53450;42.584;23.366;2023-05-02T09:36:52;14.40;;;3.00;;
66593;SDS011;53450;42.584;23.366;2023-05-02T09:39:25;2.08;;;1.88;;
66593;SDS011;53450;42.584;23.366;2023-05-02T09:41:58;2.88;;;2.50;;
66593;SDS011;53450;42.584;23.366;2023-05-02T09:44:48;2.92;;;2.03;;
66593;SDS011;53450;42.584;23.366;2023-05-02T09:47:23;2.17;;;1.75;;
66593;SDS011;53450;42.584;23.366;2023-05-02T09:49:50;2.65;;;2.10;;
66593;SDS011;53450;42.584;23.366;2023-05-02T09:52:17;4.10;;;2.47;;
66593;SDS011;53450;42.584;23.366;2023-05-02T09:54:46;2.45;;;2.00;;
66593;SDS011;53450;42.584;23.366;2023-05-02T09:57:14;5.80;;;1.95;;
66593;SDS011;53450;42.584;23.366;2023-05-02T09:59:40;6.57;;;2.28;;
66593;SDS011;53450;42.584;23.366;2023-05-02T10:02:19;10.60;;;2.45;;
66593;SDS011;53450;42.584;23.366;2023-05-02T10:04:46;5.53;;;2.58;;
66593;SDS011;53450;42.584;23.366;2023-05-02T10:07:13;2.20;;;2.03;;
66593;SDS011;53450;42.584;23.366;2023-05-02T10:09:42;5.55;;;2.35;;
66593;SDS011;53450;42.584;23.366;2023-05-02T10:12:08;6.07;;;2.03;;
66593;SDS011;53450;42.584;23.366;2023-05-02T10:14:34;5.45;;;2.28;;
66593;SDS011;53450;42.584;23.366;2023-05-02T10:19:41;2.30;;;2.10;;
66593;SDS011;53450;42.584;23.366;2023-05-02T10:22:30;2.72;;;1.80;;
66593;SDS011;53450;42.584;23.366;2023-05-02T10:25:01;2.47;;;1.70;;
66593;SDS011;53450;42.584;23.366;2023-05-02T10:27:30;3.70;;;2.20;;
66593;SDS011;53450;42.584;23.366;2023-05-02T10:29:57;6.60;;;2.10;;
66593;SDS011;53450;42.584;23.366;2023-05-02T10:32:23;1.70;;;1.60;;
66593;SDS011;53450;42.584;23.366;2023-05-02T10:34:53;2.75;;;1.98;;
66593;SDS011;53450;42.584;23.366;2023-05-02T10:37:21;3.45;;;1.95;;
66593;SDS011;53450;42.584;23.366;2023-05-02T10:39:49;3.95;;;1.90;;
66593;SDS011;53450;42.584;23.366;2023-05-02T10:42:14;8.73;;;2.38;;
66593;SDS011;53450;42.584;23.366;2023-05-02T10:44:42;2.60;;;1.92;;
66593;SDS011;53450;42.584;23.366;2023-05-02T10:47:23;5.40;;;1.92;;
66593;SDS011;53450;42.584;23.366;2023-05-02T10:49:54;2.65;;;1.80;;
66593;SDS011;53450;42.584;23.366;2023-05-02T11:00:33;6.43;;;1.75;;
66593;SDS011;53450;42.584;23.366;2023-05-02T11:02:58;5.28;;;1.90;;
66593;SDS011;53450;42.584;23.366;2023-05-02T11:05:25;4.38;;;2.38;;
66593;SDS011;53450;42.584;23.366;2023-05-02T11:10:44;4.60;;;2.10;;
66593;SDS011;53450;42.584;23.366;2023-05-02T11:13:10;3.53;;;2.00;;
66593;SDS011;53450;42.584;23.366;2023-05-02T11:18:05;9.13;;;2.10;;
66593;SDS011;53450;42.584;23.366;2023-05-02T11:20:32;3.92;;;1.92;;
66593;SDS011;53450;42.584;23.366;2023-05-02T11:23:20;2.45;;;1.95;;
66593;SDS011;53450;42.584;23.366;2023-05-02T11:25:50;14.57;;;2.00;;
66593;SDS011;53450;42.584;23.366;2023-05-02T11:31:08;2.88;;;1.63;;
66593;SDS011;53450;42.584;23.366;2023-05-02T11:34:01;2.10;;;2.00;;
66593;SDS011;53450;42.584;23.366;2023-05-02T11:36:28;13.02;;;2.03;;
66593;SDS011;53450;42.584;23.366;2023-05-02T11:39:24;3.80;;;2.28;;
66593;SDS011;53450;42.584;23.366;2023-05-02T11:42:28;4.88;;;2.20;;
66593;SDS011;53450;42.584;23.366;2023-05-02T11:44:58;2.78;;;1.90;;
66593;SDS011;53450;42.584;23.366;2023-05-02T11:47:25;3.35;;;2.13;;
66593;SDS011;53450;42.584;23.366;2023-05-02T11:49:54;7.10;;;2.10;;
66593;SDS011;53450;42.584;23.366;2023-05-02T11:52:22;2.83;;;1.83;;
66593;SDS011;53450;42.584;23.366;2023-05-02T11:54:48;5.00;;;2.10;;
66593;SDS011;53450;42.584;23.366;2023-05-02T11:57:14;4.75;;;2.30;;
66593;SDS011;53450;42.584;23.366;2023-05-02T11:59:52;2.97;;;1.83;;
66593;SDS011;53450;42.584;23.366;2023-05-02T12:02:19;2.00;;;1.80;;
66593;SDS011;53450;42.584;23.366;2023-05-02T12:04:47;6.45;;;1.95;;
66593;SDS011;53450;42.584;23.366;2023-05-02T12:07:13;5.22;;;2.05;;
66593;SDS011;53450;42.584;23.366;2023-05-02T12:09:52;2.53;;;2.08;;
66593;SDS011;53450;42.584;23.366;2023-05-02T12:12:18;4.00;;;2.30;;
66593;SDS011;53450;42.584;23.366;2023-05-02T12:14:47;5.30;;;2.15;;
66593;SDS011;53450;42.584;23.366;2023-05-02T12:17:13;2.53;;;2.03;;
66593;SDS011;53450;42.584;23.366;2023-05-02T12:20:04;3.58;;;1.77;;
66593;SDS011;53450;42.584;23.366;2023-05-02T12:22:31;12.05;;;2.28;;
66593;SDS011;53450;42.584;23.366;2023-05-02T12:24:57;3.08;;;2.10;;
66593;SDS011;53450;42.584;23.366;2023-05-02T12:27:23;4.65;;;2.30;;
66593;SDS011;53450;42.584;23.366;2023-05-02T12:29:49;2.38;;;2.15;;
66593;SDS011;53450;42.584;23.366;2023-05-02T12:32:25;4.50;;;1.98;;
66593;SDS011;53450;42.584;23.366;2023-05-02T12:34:55;2.97;;;2.10;;
66593;SDS011;53450;42.584;23.366;2023-05-02T12:37:22;2.25;;;2.05;;
66593;SDS011;53450;42.584;23.366;2023-05-02T12:39:49;2.20;;;2.00;;
66593;SDS011;53450;42.584;23.366;2023-05-02T12:42:15;3.92;;;2.10;;
66593;SDS011;53450;42.584;23.366;2023-05-02T12:44:43;2.85;;;2.05;;
66593;SDS011;53450;42.584;23.366;2023-05-02T12:47:10;2.72;;;2.25;;
66593;SDS011;53450;42.584;23.366;2023-05-02T12:55:14;5.05;;;2.00;;
66593;SDS011;53450;42.584;23.366;2023-05-02T12:57:40;8.73;;;2.47;;
66593;SDS011;53450;42.584;23.366;2023-05-02T13:00:07;6.25;;;2.30;;
66593;SDS011;53450;42.584;23.366;2023-05-02T13:02:33;3.10;;;1.98;;
66593;SDS011;53450;42.584;23.366;2023-05-02T13:04:59;5.32;;;1.88;;
66593;SDS011;53450;42.584;23.366;2023-05-02T13:07:24;6.05;;;2.05;;
66593;SDS011;53450;42.584;23.366;2023-05-02T13:09:50;2.67;;;1.80;;
66593;SDS011;53450;42.584;23.366;2023-05-02T13:12:15;3.28;;;2.20;;
66593;SDS011;53450;42.584;23.366;2023-05-02T13:14:45;3.72;;;2.50;;
66593;SDS011;53450;42.584;23.366;2023-05-02T13:17:12;2.17;;;1.67;;
66593;SDS011;53450;42.584;23.366;2023-05-02T13:19:37;16.55;;;3.42;;
66593;SDS011;53450;42.584;23.366;2023-05-02T13:22:03;5.85;;;1.80;;
66593;SDS011;53450;42.584;23.366;2023-05-02T13:24:28;1.65;;;1.52;;
66593;SDS011;53450;42.584;23.366;2023-05-02T13:26:54;2.83;;;2.15;;
66593;SDS011;53450;42.584;23.366;2023-05-02T13:29:20;2.05;;;1.90;;
66593;SDS011;53450;42.584;23.366;2023-05-02T13:31:45;2.17;;;1.77;;
66593;SDS011;53450;42.584;23.366;2023-05-02T13:34:14;2.75;;;1.80;;
66593;SDS011;53450;42.584;23.366;2023-05-02T13:36:40;4.78;;;1.92;;
66593;SDS011;53450;42.584;23.366;2023-05-02T13:39:10;2.03;;;1.80;;
66593;SDS011;53450;42.584;23.366;2023-05-02T13:41:37;3.75;;;2.20;;
66593;SDS011;53450;42.584;23.366;2023-05-02T13:44:02;2.50;;;1.60;;
66593;SDS011;53450;42.584;23.366;2023-05-02T13:46:28;2.25;;;1.80;;
66593;SDS011;53450;42.584;23.366;2023-05-02T13:49:25;2.00;;;1.80;;
66593;SDS011;53450;42.584;23.366;2023-05-02T13:51:50;4.20;;;1.90;;
66593;SDS011;53450;42.584;23.366;2023-05-02T13:54:16;4.57;;;1.92;;
66593;SDS011;53450;42.584;23.366;2023-05-02T13:56:41;2.85;;;1.92;;
66593;SDS011;53450;42.584;23.366;2023-05-02T13:59:07;3.25;;;1.70;;
66593;SDS011;53450;42.584;23.366;2023-05-02T14:01:33;7.13;;;1.95;;
66593;SDS011;53450;42.584;23.366;2023-05-02T14:03:59;5.28;;;1.52;;
66593;SDS011;53450;42.584;23.366;2023-05-02T14:08:56;6.38;;;2.63;;
66593;SDS011;53450;42.584;23.366;2023-05-02T14:11:22;5.70;;;2.03;;
66593;SDS011;53450;42.584;23.366;2023-05-02T14:13:48;4.38;;;1.58;;
66593;SDS011;53450;42.584;23.366;2023-05-02T14:16:13;2.00;;;1.90;;
66593;SDS011;53450;42.584;23.366;2023-05-02T14:18:39;3.75;;;1.95;;
66593;SDS011;53450;42.584;23.366;2023-05-02T14:21:04;5.05;;;1.90;;
66593;SDS011;53450;42.584;23.366;2023-05-02T14:23:30;3.58;;;1.92;;
66593;SDS011;53450;42.584;23.366;2023-05-02T14:25:56;3.58;;;2.40;;
66593;SDS011;53450;42.584;23.366;2023-05-02T14:28:21;8.70;;;2.22;;
66593;SDS011;53450;42.584;23.366;2023-05-02T14:30:53;10.55;;;2.42;;
66593;SDS011;53450;42.584;23.366;2023-05-02T14:33:19;3.15;;;1.63;;
66593;SDS011;53450;42.584;23.366;2023-05-02T14:35:45;3.97;;;2.20;;
66593;SDS011;53450;42.584;23.366;2023-05-02T14:38:10;5.70;;;1.70;;
66593;SDS011;53450;42.584;23.366;2023-05-02T14:41:01;6.47;;;1.60;;
66593;SDS011;53450;42.584;23.366;2023-05-02T14:43:30;2.00;;;1.70;;
66593;SDS011;53450;42.584;23.366;2023-05-02T14:45:56;3.55;;;1.95;;
66593;SDS011;53450;42.584;23.366;2023-05-02T14:48:23;1.95;;;1.45;;
66593;SDS011;53450;42.584;23.366;2023-05-02T14:50:48;4.47;;;1.90;;
66593;SDS011;53450;42.584;23.366;2023-05-02T14:53:14;6.40;;;2.08;;
66593;SDS011;53450;42.584;23.366;2023-05-02T14:55:39;12.52;;;2.30;;
66593;SDS011;53450;42.584;23.366;2023-05-02T14:58:05;1.92;;;1.73;;
66593;SDS011;53450;42.584;23.366;2023-05-02T15:00:35;13.85;;;2.38;;
66593;SDS011;53450;42.584;23.366;2023-05-02T15:03:04;4.30;;;2.03;;
66593;SDS011;53450;42.584;23.366;2023-05-02T15:05:30;5.10;;;2.00;;
66593;SDS011;53450;42.584;23.366;2023-05-02T15:07:56;3.75;;;2.45;;
66593;SDS011;53450;42.584;23.366;2023-05-02T15:10:21;4.25;;;1.63;;
66593;SDS011;53450;42.584;23.366;2023-05-02T15:12:47;6.57;;;2.28;;
66593;SDS011;53450;42.584;23.366;2023-05-02T15:15:18;4.80;;;2.85;;
66593;SDS011;53450;42.584;23.366;2023-05-02T15:17:44;3.17;;;2.30;;
66593;SDS011;53450;42.584;23.366;2023-05-02T15:20:35;4.82;;;1.88;;
66593;SDS011;53450;42.584;23.366;2023-05-02T15:23:00;4.53;;;2.10;;
66593;SDS011;53450;42.584;23.366;2023-05-02T15:25:27;2.38;;;1.58;;
66593;SDS011;53450;42.584;23.366;2023-05-02T15:27:53;4.85;;;1.90;;
66593;SDS011;53450;42.584;23.366;2023-05-02T15:30:19;6.40;;;1.73;;
66593;SDS011;53450;42.584;23.366;2023-05-02T15:32:44;6.70;;;1.65;;
66593;SDS011;53450;42.584;23.366;2023-05-02T15:35:10;4.72;;;1.73;;
66593;SDS011;53450;42.584;23.366;2023-05-02T15:37:36;42.90;;;3.90;;
66593;SDS011;53450;42.584;23.366;2023-05-02T15:40:02;2.35;;;1.30;;
66593;SDS011;53450;42.584;23.366;2023-05-02T15:42:28;2.97;;;1.80;;
66593;SDS011;53450;42.584;23.366;2023-05-02T15:44:53;2.97;;;1.50;;